Time;durP1;ratioP1;P1;durP2;ratioP2;P2;SDS_P1;SDS_P2;PMS_P1;PMS_P2;Temp;Humidity;BMP_temperature;BMP_pressure;BME280_temperature;BME280_humidity;BME280_pressure;Samples;Min_cycle;Max_cycle;Signal;HPM_P1;HPM_P2
2023/02/23 00:00:53;;;;;;;52.50;48.50;;;;;;;2.59;100.00;101068.56;5027015;28;20045;-76
2023/02/23 00:03:21;;;;;;;37.13;34.25;;;;;;;2.78;100.00;101070.28;5030863;28;20045;-77
2023/02/23 00:05:48;;;;;;;38.95;35.65;;;;;;;2.69;100.00;101071.97;5030993;28;20103;-76
2023/02/23 00:08:14;;;;;;;40.72;37.63;;;;;;;2.25;100.00;101071.75;5031718;28;20473;-76
2023/02/23 00:10:41;;;;;;;48.85;44.90;;;;;;;2.66;100.00;101072.25;5030513;28;20052;-76
2023/02/23 00:13:10;;;;;;;44.75;41.15;;;;;;;2.55;100.00;101083.78;5030708;28;20485;-77
2023/02/23 00:15:37;;;;;;;38.92;35.88;;;;;;;2.58;100.00;101073.00;5030864;28;20077;-77
2023/02/23 00:18:04;;;;;;;45.20;40.75;;;;;;;2.57;100.00;101073.13;5030377;28;20122;-76
2023/02/23 00:20:33;;;;;;;42.83;38.67;;;;;;;2.50;100.00;101076.34;5030284;28;20596;-77
2023/02/23 00:23:00;;;;;;;41.65;38.00;;;;;;;2.43;100.00;101069.19;5030013;28;20524;-76
2023/02/23 00:25:29;;;;;;;48.80;44.17;;;;;;;2.27;100.00;101064.56;5030660;28;20041;-77
2023/02/23 00:27:56;;;;;;;42.53;38.35;;;;;;;2.28;100.00;101071.47;5027329;28;20052;-76
2023/02/23 00:30:23;;;;;;;45.33;40.80;;;;;;;1.77;100.00;101077.91;5030643;28;20145;-76
2023/02/23 00:32:51;;;;;;;45.20;40.72;;;;;;;2.49;100.00;101074.69;5032361;28;20127;-76
2023/02/23 00:35:18;;;;;;;45.92;41.28;;;;;;;2.22;100.00;101077.28;5034874;28;20049;-76
2023/02/23 00:37:47;;;;;;;47.90;42.95;;;;;;;2.27;100.00;101070.63;5034637;28;20107;-77
2023/02/23 00:40:15;;;;;;;46.90;40.95;;;;;;;2.29;100.00;101067.84;5034111;28;20050;-76
2023/02/23 00:42:44;;;;;;;45.55;38.92;;;;;;;1.59;100.00;101080.41;5034342;28;20053;-76
2023/02/23 00:45:11;;;;;;;46.30;41.50;;;;;;;1.96;100.00;101072.63;5034153;28;20049;-76
2023/02/23 00:47:41;;;;;;;43.22;36.78;;;;;;;2.44;100.00;101066.41;5034188;28;20184;-77
2023/02/23 00:50:11;;;;;;;37.42;33.40;;;;;;;1.89;100.00;101066.31;5034423;28;20049;-77
2023/02/23 00:52:38;;;;;;;36.97;33.10;;;;;;;1.68;100.00;101069.09;5032991;28;20115;-76
2023/02/23 00:55:08;;;;;;;40.10;35.85;;;;;;;2.26;100.00;101068.97;5034050;28;20048;-76
2023/02/23 00:57:35;;;;;;;47.95;43.35;;;;;;;2.10;100.00;101066.13;5034234;28;20104;-77
2023/02/23 01:00:11;;;;;;;43.33;39.22;;;;;;;2.19;100.00;101053.97;5034711;28;20085;-77
2023/02/23 01:02:38;;;;;;;36.95;33.55;;;;;;;1.62;100.00;101064.41;5033553;28;20128;-77
2023/02/23 01:05:06;;;;;;;42.80;38.50;;;;;;;2.16;100.00;101076.03;5034277;28;20116;-76
2023/02/23 01:07:32;;;;;;;34.00;30.48;;;;;;;2.19;100.00;101067.91;5033541;28;20056;-77
2023/02/23 01:09:59;;;;;;;35.72;32.10;;;;;;;2.17;100.00;101061.97;5033796;28;20042;-77
2023/02/23 01:12:27;;;;;;;34.80;31.25;;;;;;;1.76;100.00;101060.56;5033506;28;20050;-77
2023/02/23 01:14:54;;;;;;;39.05;35.65;;;;;;;2.12;100.00;101069.44;5033527;28;20046;-76
2023/02/23 01:17:21;;;;;;;37.78;34.08;;;;;;;2.11;100.00;101064.34;5033503;28;20063;-77
2023/02/23 01:19:47;;;;;;;38.85;35.08;;;;;;;2.17;100.00;101061.13;5033481;28;20045;-77
2023/02/23 01:22:14;;;;;;;39.40;35.35;;;;;;;1.82;100.00;101075.72;5033299;28;20108;-77
2023/02/23 01:24:41;;;;;;;33.53;30.08;;;;;;;2.25;100.00;101064.69;5033854;28;20095;-76
2023/02/23 01:27:08;;;;;;;34.65;30.90;;;;;;;2.71;100.00;101070.84;5034031;28;20053;-76
2023/02/23 01:29:36;;;;;;;35.17;31.98;;;;;;;2.38;100.00;101064.38;5032140;28;20046;-77
2023/02/23 01:32:04;;;;;;;37.40;34.05;;;;;;;2.74;100.00;101073.19;5032973;28;20049;-76
2023/02/23 01:34:31;;;;;;;35.80;32.35;;;;;;;2.77;100.00;101074.69;5032510;28;20506;-77
2023/02/23 01:36:58;;;;;;;44.83;40.88;;;;;;;2.60;100.00;101070.22;5033564;28;20056;-77
2023/02/23 01:39:25;;;;;;;41.92;38.35;;;;;;;2.85;100.00;101077.41;5032962;28;20053;-76
2023/02/23 01:41:53;;;;;;;46.95;42.92;;;;;;;2.81;100.00;101073.41;5030599;28;20041;-77
2023/02/23 01:44:57;;;;;;;51.60;47.38;;;;;;;3.29;100.00;101069.66;5032606;28;20506;-77
2023/02/23 01:47:26;;;;;;;49.17;45.33;;;;;;;3.38;100.00;101075.81;5032895;28;20054;-77
2023/02/23 01:49:52;;;;;;;47.40;43.88;;;;;;;3.27;100.00;101078.66;5033007;28;20052;-76
2023/02/23 01:52:20;;;;;;;46.58;42.70;;;;;;;3.38;100.00;101071.38;5031462;28;20072;-77
2023/02/23 01:54:50;;;;;;;53.05;48.45;;;;;;;3.12;100.00;101066.06;5033176;28;20437;-77
2023/02/23 01:57:20;;;;;;;53.85;49.17;;;;;;;3.20;100.00;101073.19;5032451;28;20056;-76
2023/02/23 01:59:49;;;;;;;51.75;47.55;;;;;;;3.11;100.00;101063.56;5032913;28;20128;-77
2023/02/23 02:02:17;;;;;;;52.25;47.85;;;;;;;3.39;100.00;101070.44;5032462;28;20431;-77
2023/02/23 02:04:46;;;;;;;52.08;48.05;;;;;;;3.53;100.00;101060.34;5033508;28;20049;-77
2023/02/23 02:07:15;;;;;;;51.60;47.45;;;;;;;3.24;100.00;101065.81;5028654;28;20079;-76
2023/02/23 02:10:16;;;;;;;47.17;43.45;;;;;;;3.29;100.00;101074.91;5029223;28;20049;-77
2023/02/23 02:12:30;;;;;;;48.78;45.25;;;;;;;3.47;100.00;101071.47;5028940;28;20103;-76
2023/02/23 02:14:59;;;;;;;51.05;47.13;;;;;;;3.44;100.00;101073.41;5032532;28;20450;-77
2023/02/23 02:17:36;;;;;;;55.13;50.60;;;;;;;3.44;100.00;101068.16;5032922;28;20088;-77
2023/02/23 02:20:31;;;;;;;61.83;57.13;;;;;;;3.42;100.00;101072.75;5025169;28;20176;-76
2023/02/23 02:23:31;;;;;;;60.45;55.83;;;;;;;3.32;100.00;101081.66;5031134;28;20042;-77
2023/02/23 02:26:08;;;;;;;55.28;50.78;;;;;;;3.28;100.00;101073.28;4996897;28;20490;-76
2023/02/23 02:28:56;;;;;;;57.08;53.10;;;;;;;2.83;100.00;101081.97;5028840;28;20049;-77
2023/02/23 02:32:00;;;;;;;64.13;59.40;;;;;;;3.18;100.00;101089.09;5022864;28;20053;-77
2023/02/23 02:35:10;;;;;;;55.50;51.13;;;;;;;3.52;100.00;101077.94;4970026;28;20149;-77
2023/02/23 02:37:55;;;;;;;51.67;47.40;;;;;;;3.27;100.00;101081.28;5025466;28;20069;-77
2023/02/23 02:40:28;;;;;;;47.13;42.83;;;;;;;3.24;100.00;101082.44;5009671;28;20057;-77
2023/02/23 02:43:07;;;;;;;50.45;45.83;;;;;;;2.93;100.00;101076.66;5005319;28;20128;-77
2023/02/23 02:45:41;;;;;;;51.55;46.90;;;;;;;2.89;100.00;101088.44;5011969;28;20056;-76
2023/02/23 02:48:16;;;;;;;58.45;53.60;;;;;;;3.31;100.00;101083.47;5012223;28;20053;-77
2023/02/23 02:50:49;;;;;;;55.58;51.22;;;;;;;3.11;100.00;101098.53;5011553;28;20046;-77
2023/02/23 02:53:20;;;;;;;;;;;;;;;3.28;100.00;101094.28;5010252;28;20428;-77
2023/02/23 02:55:49;;;;;;;57.38;52.50;;;;;;;3.15;100.00;101092.03;5006013;28;19925;-77
2023/02/23 02:58:17;;;;;;;53.38;49.20;;;;;;;3.19;100.00;101095.16;5012684;28;20046;-77
2023/02/23 04:19:20;;;;;;;54.33;50.10;;;;;;;2.75;100.00;101129.09;5012686;28;20121;-77
2023/02/23 04:21:46;;;;;;;56.47;51.33;;;;;;;2.58;100.00;101132.50;5011884;28;20050;-77
2023/02/23 04:24:13;;;;;;;53.10;48.17;;;;;;;2.11;100.00;101135.91;5017137;28;20065;-76
2023/02/23 04:26:40;;;;;;;62.03;55.95;;;;;;;2.06;100.00;101130.28;5017709;28;20049;-76
2023/02/23 04:29:06;;;;;;;52.30;46.90;;;;;;;2.03;100.00;101139.25;5005066;28;20127;-77
2023/02/23 04:31:33;;;;;;;50.00;44.80;;;;;;;1.97;100.00;101146.84;5018103;28;20501;-76
2023/02/23 04:34:02;;;;;;;47.60;41.17;;;;;;;2.05;100.00;101146.94;5017935;28;20108;-76
2023/02/23 04:36:28;;;;;;;47.90;43.60;;;;;;;2.08;100.00;101151.09;5017260;28;20042;-77
2023/02/23 04:38:55;;;;;;;40.97;36.85;;;;;;;2.33;100.00;101139.19;5025923;28;20050;-77
2023/02/23 04:41:22;;;;;;;44.35;40.30;;;;;;;2.19;100.00;101146.53;5037727;28;20418;-76
2023/02/23 04:43:49;;;;;;;48.83;44.55;;;;;;;2.34;100.00;101146.09;5037776;28;20107;-76
2023/02/23 04:46:15;;;;;;;42.40;38.38;;;;;;;1.98;100.00;101151.09;5036965;28;20049;-77
2023/02/23 04:48:42;;;;;;;39.95;36.25;;;;;;;1.91;100.00;101153.47;5037077;28;20108;-77
2023/02/23 04:51:10;;;;;;;54.17;45.33;;;;;;;1.72;100.00;101151.66;5032592;28;20522;-76
2023/02/23 04:53:38;;;;;;;55.22;47.90;;;;;;;1.78;100.00;101153.72;5033946;28;20573;-77
2023/02/23 04:56:06;;;;;;;47.83;42.90;;;;;;;1.73;100.00;101152.50;5036895;28;20101;-77
2023/02/23 04:58:33;;;;;;;38.85;35.05;;;;;;;1.33;100.00;101154.25;5031988;28;20148;-77
2023/02/23 05:01:05;;;;;;;36.55;32.80;;;;;;;1.45;100.00;101154.94;5037082;28;20107;-77
2023/02/23 05:03:31;;;;;;;37.17;33.63;;;;;;;1.63;100.00;101154.28;5034219;28;20043;-77
2023/02/23 05:05:58;;;;;;;38.17;34.35;;;;;;;1.69;100.00;101153.72;5036902;28;20511;-77
2023/02/23 05:08:26;;;;;;;35.65;31.88;;;;;;;1.71;100.00;101159.66;4996910;28;20469;-77
2023/02/23 05:10:53;;;;;;;36.80;32.80;;;;;;;1.73;100.00;101161.19;4974692;28;20058;-76
2023/02/23 05:13:20;;;;;;;40.28;36.38;;;;;;;1.78;100.00;101166.00;5028601;28;20037;-77
2023/02/23 05:15:47;;;;;;;39.72;35.47;;;;;;;2.02;100.00;101163.78;5029783;28;20046;-77
2023/02/23 05:18:14;;;;;;;37.78;34.00;;;;;;;2.01;100.00;101167.38;5029103;28;20107;-76
2023/02/23 05:20:44;;;;;;;40.63;36.90;;;;;;;1.46;100.00;101169.69;5024098;28;20053;-77
2023/02/23 05:23:11;;;;;;;38.70;35.15;;;;;;;2.05;100.00;101178.41;5028150;28;20434;-77
2023/02/23 05:25:40;;;;;;;36.45;32.85;;;;;;;2.03;100.00;101181.16;5033066;28;20045;-77
2023/02/23 05:28:07;;;;;;;36.03;32.50;;;;;;;2.41;100.00;101178.63;5027059;28;20053;-77
2023/02/23 05:30:34;;;;;;;34.83;31.35;;;;;;;2.09;100.00;101181.56;5033302;28;20057;-77
2023/02/23 05:33:01;;;;;;;40.25;36.00;;;;;;;2.17;100.00;101181.69;5030914;28;20565;-76
2023/02/23 05:35:28;;;;;;;64.25;44.88;;;;;;;2.29;100.00;101185.81;5027654;28;20049;-77
2023/02/23 05:37:55;;;;;;;78.22;53.92;;;;;;;2.27;100.00;101177.28;5033383;28;20490;-77
2023/02/23 05:40:22;;;;;;;98.75;61.88;;;;;;;2.00;100.00;101186.69;5033103;28;20103;-77
2023/02/23 05:42:50;;;;;;;73.57;51.42;;;;;;;1.92;100.00;101198.81;5033292;28;20407;-77
2023/02/23 05:45:17;;;;;;;52.15;42.72;;;;;;;1.86;100.00;101205.44;5028297;28;20045;-77
2023/02/23 05:47:44;;;;;;;44.47;39.47;;;;;;;2.04;100.00;101208.19;5032082;28;20061;-77
2023/02/23 05:50:12;;;;;;;46.15;39.72;;;;;;;2.16;100.00;101206.25;5015918;28;20049;-77
2023/02/23 05:52:40;;;;;;;51.97;41.33;;;;;;;2.26;100.00;101209.69;5023490;28;20143;-77
2023/02/23 05:55:08;;;;;;;46.15;39.00;;;;;;;2.38;100.00;101213.00;5023532;28;20111;-77
2023/02/23 05:57:35;;;;;;;45.83;40.58;;;;;;;2.42;100.00;101219.59;5022727;28;20108;-77
2023/02/23 06:00:05;;;;;;;45.78;40.40;;;;;;;2.59;100.00;101225.94;5024284;28;20053;-77
2023/02/23 06:02:32;;;;;;;47.67;41.00;;;;;;;2.69;100.00;101238.06;5027035;28;20461;-76
2023/02/23 06:04:58;;;;;;;45.33;40.63;;;;;;;2.79;100.00;101239.84;5028445;28;20054;-77
2023/02/23 06:07:25;;;;;;;44.42;37.13;;;;;;;3.11;100.00;101242.06;5021152;28;20049;-77
2023/02/23 06:09:52;;;;;;;43.00;36.45;;;;;;;2.68;100.00;101246.88;5023555;28;20045;-77
2023/02/23 06:12:19;;;;;;;36.58;32.88;;;;;;;2.81;100.00;101251.00;5025271;28;20469;-77
2023/02/23 06:14:45;;;;;;;34.83;31.23;;;;;;;3.13;100.00;101255.88;5024339;28;20068;-77
2023/02/23 06:17:13;;;;;;;35.95;32.65;;;;;;;3.12;100.00;101260.31;5031909;28;20046;-77
2023/02/23 06:19:40;;;;;;;36.92;30.80;;;;;;;3.40;100.00;101258.53;5033759;28;20049;-77
2023/02/23 06:22:07;;;;;;;36.95;33.55;;;;;;;3.73;100.00;101263.34;5023818;28;20477;-77
2023/02/23 06:24:34;;;;;;;34.95;31.30;;;;;;;3.78;100.00;101263.69;5029295;28;20061;-78
2023/02/23 06:27:01;;;;;;;31.98;28.92;;;;;;;3.95;100.00;101269.97;5024318;28;20081;-77
2023/02/23 06:29:27;;;;;;;34.47;31.35;;;;;;;3.85;100.00;101273.47;5026604;28;20049;-77
2023/02/23 06:31:54;;;;;;;34.83;31.73;;;;;;;3.94;100.00;101287.53;5027078;28;20516;-77
2023/02/23 06:34:23;;;;;;;35.95;32.28;;;;;;;3.92;100.00;101278.97;5028660;28;20414;-77
2023/02/23 06:36:49;;;;;;;31.77;28.70;;;;;;;3.85;100.00;101281.38;5027440;28;20491;-77
2023/02/23 06:39:16;;;;;;;34.90;31.73;;;;;;;4.19;100.00;101288.59;5022028;28;20046;-77
2023/02/23 06:41:43;;;;;;;37.60;33.53;;;;;;;4.05;100.00;101284.66;5025332;28;20549;-77
2023/02/23 06:44:09;;;;;;;36.78;33.10;;;;;;;4.25;100.00;101288.00;5025511;28;20120;-77
2023/02/23 06:46:36;;;;;;;38.40;34.78;;;;;;;4.42;100.00;101286.34;5025332;28;20049;-76
2023/02/23 06:49:03;;;;;;;31.77;28.98;;;;;;;4.26;100.00;101287.00;5022237;28;20050;-77
2023/02/23 06:51:31;;;;;;;35.58;32.17;;;;;;;4.29;100.00;101291.97;5027078;28;20392;-77
2023/02/23 06:53:58;;;;;;;38.03;34.50;;;;;;;4.64;100.00;101281.56;5020875;28;20506;-77
2023/02/23 06:56:25;;;;;;;37.25;34.00;;;;;;;4.87;100.00;101281.88;5026410;28;20081;-77
2023/02/23 06:58:52;;;;;;;35.03;31.92;;;;;;;4.65;100.00;101278.78;5027186;28;20049;-77
2023/02/23 07:01:19;;;;;;;32.78;29.80;;;;;;;4.91;100.00;101288.50;5025453;28;20080;-77
2023/02/23 07:03:46;;;;;;;34.55;31.05;;;;;;;4.82;100.00;101283.19;5023806;28;20116;-77
2023/02/23 07:06:13;;;;;;;36.67;32.92;;;;;;;4.56;100.00;101284.97;5025548;28;20123;-77
2023/02/23 07:08:41;;;;;;;40.85;37.10;;;;;;;5.36;100.00;101288.28;5023279;28;20076;-77
2023/02/23 07:11:09;;;;;;;38.13;34.35;;;;;;;5.51;100.00;101286.69;5023419;28;20058;-77
2023/02/23 07:13:36;;;;;;;47.20;36.47;;;;;;;5.77;100.00;101280.50;5030901;28;20498;-77
2023/02/23 07:16:03;;;;;;;46.70;42.40;;;;;;;5.66;100.00;101286.91;5031199;28;20473;-77
2023/02/23 07:18:30;;;;;;;45.40;37.63;;;;;;;5.80;100.00;101295.16;5026804;28;20103;-77
2023/02/23 07:20:56;;;;;;;38.50;34.67;;;;;;;5.38;100.00;101290.72;5019747;28;20103;-77
2023/02/23 07:23:23;;;;;;;35.10;31.58;;;;;;;6.01;100.00;101290.31;5027849;28;20053;-77
2023/02/23 07:25:52;;;;;;;40.65;36.47;;;;;;;6.22;100.00;101297.75;5026853;28;20049;-77
2023/02/23 07:28:19;;;;;;;48.22;43.45;;;;;;;6.52;100.00;101300.75;5030697;28;20392;-77
2023/02/23 07:30:46;;;;;;;36.60;33.03;;;;;;;6.55;100.00;101297.78;5024243;28;20167;-77
2023/02/23 07:33:13;;;;;;;41.25;37.35;;;;;;;6.80;100.00;101298.59;5026784;28;20518;-77
2023/02/23 07:35:41;;;;;;;32.70;29.80;;;;;;;6.87;100.00;101303.06;5021216;28;20111;-77
2023/02/23 07:38:07;;;;;;;38.80;35.83;;;;;;;7.17;100.00;101305.97;5014354;28;20073;-77
2023/02/23 07:40:34;;;;;;;34.45;31.08;;;;;;;7.44;100.00;101306.53;5017362;28;20080;-77
2023/02/23 07:43:02;;;;;;;31.27;28.83;;;;;;;7.68;100.00;101310.91;5020692;28;20120;-77
2023/02/23 07:45:29;;;;;;;33.15;30.42;;;;;;;7.79;100.00;101307.88;5017789;28;20503;-77
2023/02/23 07:47:56;;;;;;;33.97;31.30;;;;;;;7.47;100.00;101303.53;5022246;28;20045;-77
2023/02/23 07:50:22;;;;;;;33.85;30.75;;;;;;;7.49;100.00;101306.84;5025522;28;20042;-77
2023/02/23 07:52:50;;;;;;;30.52;27.88;;;;;;;7.41;100.00;101315.63;5028853;28;20103;-77
2023/02/23 07:55:18;;;;;;;29.38;27.08;;;;;;;7.83;100.00;101314.47;4665445;28;10000029;-77
2023/02/23 07:57:45;;;;;;;32.53;30.00;;;;;;;7.89;100.00;101313.75;5019793;28;20485;-78
2023/02/23 08:00:14;;;;;;;34.40;31.50;;;;;;;8.06;100.00;101311.84;5022994;28;20430;-77
2023/02/23 08:02:41;;;;;;;29.38;26.88;;;;;;;7.95;100.00;101317.53;5020192;28;20472;-77
2023/02/23 08:05:08;;;;;;;31.08;28.77;;;;;;;7.85;100.00;101325.69;5023873;28;20053;-77
2023/02/23 08:07:36;;;;;;;34.45;31.13;;;;;;;8.23;100.00;101323.19;5015983;28;20064;-77
2023/02/23 08:10:03;;;;;;;36.28;32.40;;;;;;;8.45;100.00;101322.38;5017617;28;20053;-77
2023/02/23 08:12:32;;;;;;;52.25;35.70;;;;;;;8.40;100.00;101323.91;5026676;28;20046;-77
2023/02/23 08:14:58;;;;;;;31.33;28.38;;;;;;;8.36;100.00;101315.47;5026705;28;20054;-77
2023/02/23 08:17:26;;;;;;;30.05;27.40;;;;;;;8.57;100.00;101319.31;5028026;28;20119;-77
2023/02/23 08:19:53;;;;;;;33.47;31.27;;;;;;;8.52;100.00;101326.97;5024236;28;20046;-77
2023/02/23 08:22:20;;;;;;;29.60;27.20;;;;;;;8.59;100.00;101327.88;5024578;28;20128;-77
2023/02/23 08:24:47;;;;;;;27.42;24.92;;;;;;;8.83;100.00;101332.16;5026978;28;20465;-77
2023/02/23 08:27:13;;;;;;;30.00;27.50;;;;;;;8.89;100.00;101332.25;5021078;28;20582;-77
2023/02/23 08:29:40;;;;;;;32.90;30.20;;;;;;;9.27;100.00;101334.06;5027456;28;20049;-78
2023/02/23 08:32:07;;;;;;;30.80;28.25;;;;;;;9.08;100.00;101344.19;5016291;28;20473;-78
2023/02/23 08:34:39;;;;;;;30.15;27.65;;;;;;;9.23;100.00;101335.41;5026029;28;20565;-77
2023/02/23 08:37:06;;;;;;;29.55;26.63;;;;;;;9.17;100.00;101345.75;5029759;28;20598;-77
2023/02/23 08:39:33;;;;;;;33.33;30.80;;;;;;;9.18;100.00;101339.44;5027049;28;20131;-77
2023/02/23 08:42:00;;;;;;;38.53;35.05;;;;;;;9.51;100.00;101340.91;5025564;28;20041;-78
2023/02/23 08:44:27;;;;;;;27.80;25.35;;;;;;;9.49;100.00;101351.69;5024283;28;20053;-77
2023/02/23 08:46:57;;;;;;;31.77;28.70;;;;;;;9.52;100.00;101358.47;5019669;28;20075;-77
2023/02/23 08:49:24;;;;;;;38.00;35.20;;;;;;;9.40;100.00;101355.44;5022227;28;20458;-77
2023/02/23 08:51:52;;;;;;;35.17;32.33;;;;;;;9.40;100.00;101350.97;5019036;28;20108;-77
2023/02/23 08:54:19;;;;;;;29.40;26.83;;;;;;;9.66;100.00;101356.84;5021232;28;20499;-77
2023/02/23 08:56:46;;;;;;;28.52;26.13;;;;;;;9.90;100.00;101356.53;5025770;28;20061;-77
2023/02/23 08:59:13;;;;;;;28.27;25.98;;;;;;;10.06;100.00;101352.81;5024750;28;20042;-78
2023/02/23 09:01:41;;;;;;;33.97;31.23;;;;;;;10.39;100.00;101345.25;5022658;28;20567;-78
2023/02/23 09:04:07;;;;;;;29.70;27.23;;;;;;;10.39;100.00;101350.56;5014609;28;20061;-77
2023/02/23 09:06:35;;;;;;;27.52;24.77;;;;;;;10.51;100.00;101357.00;5022146;28;20046;-77
2023/02/23 09:09:03;;;;;;;27.40;24.77;;;;;;;10.39;100.00;101352.41;5020075;28;20049;-77
2023/02/23 09:11:30;;;;;;;34.25;31.02;;;;;;;10.81;100.00;101354.22;5021779;28;20115;-77
2023/02/23 09:13:57;;;;;;;33.90;31.05;;;;;;;10.80;100.00;101357.03;5020614;28;20111;-78
2023/02/23 09:16:24;;;;;;;28.50;25.75;;;;;;;11.02;100.00;101357.84;5020669;28;20058;-78
2023/02/23 09:18:51;;;;;;;27.95;25.27;;;;;;;11.04;100.00;101358.47;5023588;28;20049;-77
2023/02/23 09:21:23;;;;;;;33.10;27.92;;;;;;;11.03;100.00;101362.97;5027253;28;20496;-78
2023/02/23 09:23:53;;;;;;;28.27;25.98;;;;;;;11.00;100.00;101353.53;5023515;28;20160;-77
2023/02/23 09:26:22;;;;;;;29.40;26.65;;;;;;;12.44;100.00;101349.31;5022105;28;20041;-77
2023/02/23 09:28:50;;;;;;;29.08;26.67;;;;;;;11.78;100.00;101357.91;5021056;28;20045;-77
2023/02/23 09:31:18;;;;;;;29.40;26.92;;;;;;;12.22;100.00;101357.44;5024683;28;20474;-78
2023/02/23 09:33:45;;;;;;;33.30;30.58;;;;;;;12.13;100.00;101358.66;5023131;28;20049;-78
2023/02/23 09:36:15;;;;;;;25.60;23.23;;;;;;;12.17;100.00;101356.44;5021903;28;20049;-78
2023/02/23 09:38:42;;;;;;;25.48;23.38;;;;;;;11.86;100.00;101355.06;5019032;28;20575;-78
2023/02/23 09:41:40;;;;;;;29.60;27.00;;;;;;;11.93;100.00;101355.94;5022922;28;20050;-78
2023/02/23 09:44:17;;;;;;;31.90;29.15;;;;;;;12.49;100.00;101353.00;5030539;28;20046;-77
2023/02/23 09:46:55;;;;;;;25.95;23.83;;;;;;;12.57;100.00;101360.00;5028739;28;20172;-80
2023/02/23 09:49:26;;;;;;;27.90;25.27;;;;;;;12.44;100.00;101350.13;5026646;28;20049;-77
2023/02/23 09:51:56;;;;;;;25.25;23.15;;;;;;;13.27;100.00;101363.06;5031193;28;20053;-77
2023/02/23 09:54:25;;;;;;;28.45;26.33;;;;;;;13.41;100.00;101345.19;5021047;28;20603;-77
2023/02/23 09:56:55;;;;;;;27.50;25.42;;;;;;;14.26;100.00;101351.19;5030148;28;20104;-80
2023/02/23 09:59:23;;;;;;;25.20;22.58;;;;;;;14.49;100.00;101352.47;5025444;28;20051;-78
2023/02/23 10:01:58;;;;;;;25.30;23.40;;;;;;;13.47;100.00;101355.03;5023597;28;20049;-79
2023/02/23 10:04:29;;;;;;;26.13;23.95;;;;;;;13.71;100.00;101351.69;5029969;28;20037;-77
2023/02/23 10:07:00;;;;;;;34.85;32.55;;;;;;;13.14;100.00;101347.06;5031151;28;20069;-79
2023/02/23 10:09:44;;;;;;;23.70;21.52;;;;;;;13.76;100.00;101348.34;5015707;28;20080;-77
2023/02/23 10:12:19;;;;;;;25.17;22.75;;;;;;;14.31;100.00;101339.84;5024892;28;20469;-77
2023/02/23 10:15:11;;;;;;;25.52;23.70;;;;;;;14.46;100.00;101343.03;5027912;28;20042;-77
2023/02/23 10:17:49;;;;;;;37.13;33.95;;;;;;;14.38;100.00;101349.47;5020250;28;20045;-81
2023/02/23 10:20:24;;;;;;;33.58;30.83;;;;;;;13.88;100.00;101341.31;5023025;28;20119;-77
2023/02/23 10:22:53;;;;;;;26.63;24.13;;;;;;;13.79;100.00;101339.91;5024946;28;20052;-77
2023/02/23 10:25:24;;;;;;;25.17;22.58;;;;;;;13.69;100.00;101344.91;5024309;28;20053;-77
2023/02/23 10:27:54;;;;;;;24.45;22.45;;;;;;;13.81;100.00;101334.38;5035242;28;20049;-77
2023/02/23 10:30:24;;;;;;;31.67;29.23;;;;;;;13.65;100.00;101341.03;5029028;28;20049;-77
2023/02/23 10:32:59;;;;;;;25.83;23.42;;;;;;;14.56;100.00;101332.75;5023091;28;20119;-79
2023/02/23 10:35:28;;;;;;;26.30;24.20;;;;;;;13.10;100.00;101330.66;5026745;28;20046;-77
2023/02/23 10:37:57;;;;;;;25.55;23.23;;;;;;;14.23;100.00;101334.78;5029892;28;20152;-79
2023/02/23 10:40:27;;;;;;;26.17;23.83;;;;;;;14.10;100.00;101325.81;5023620;28;20053;-77
2023/02/23 10:42:57;;;;;;;37.55;34.72;;;;;;;14.90;100.00;101325.25;5026790;28;20049;-77
2023/02/23 10:45:25;;;;;;;27.00;24.58;;;;;;;15.88;100.00;101324.41;5021429;28;20050;-77
2023/02/23 10:47:56;;;;;;;25.85;23.48;;;;;;;16.00;98.58;101327.94;5020338;28;20057;-77
2023/02/23 10:50:25;;;;;;;24.25;22.20;;;;;;;16.00;94.59;101308.38;5024584;28;20049;-79
2023/02/23 10:52:57;;;;;;;30.55;28.25;;;;;;;15.06;100.00;101316.66;5019785;28;20067;-77
2023/02/23 10:55:25;;;;;;;36.33;33.72;;;;;;;15.96;97.83;101302.66;5025125;28;20057;-80
2023/02/23 10:58:04;;;;;;;26.88;24.48;;;;;;;17.27;94.70;101302.59;5030526;28;20045;-77
2023/02/23 11:00:32;;;;;;;25.42;23.40;;;;;;;16.36;92.81;101296.72;5018121;28;20058;-77
2023/02/23 11:03:02;;;;;;;24.05;21.95;;;;;;;15.51;91.96;101294.97;5022078;28;20431;-77
2023/02/23 11:05:43;;;;;;;36.85;33.92;;;;;;;15.76;94.13;101291.38;5024453;28;20526;-77
2023/02/23 11:08:19;;;;;;;37.08;33.70;;;;;;;16.50;92.52;101289.28;5030391;28;20073;-77
2023/02/23 11:11:12;;;;;;;24.75;22.65;;;;;;;15.20;94.19;101290.59;5027247;28;20060;-79
2023/02/23 11:13:43;;;;;;;28.10;25.67;;;;;;;15.32;96.26;101288.81;5015360;28;20123;-79
2023/02/23 11:16:13;;;;;;;26.23;23.95;;;;;;;15.57;98.14;101285.22;5025899;28;20045;-79
2023/02/23 11:18:41;;;;;;;33.35;29.35;;;;;;;14.92;98.31;101291.09;5026792;28;20191;-79
2023/02/23 11:21:13;;;;;;;28.55;26.33;;;;;;;14.99;98.48;101288.34;5026459;28;20144;-79
2023/02/23 11:23:41;;;;;;;25.73;23.70;;;;;;;14.93;96.44;101287.38;5032437;28;20037;-79
2023/02/23 11:26:22;;;;;;;27.83;25.55;;;;;;;15.20;96.72;101284.44;5018816;28;20426;-77
2023/02/23 11:28:54;;;;;;;27.27;24.77;;;;;;;15.36;94.86;101294.53;5026418;28;20095;-79
2023/02/23 11:31:28;;;;;;;33.42;30.95;;;;;;;15.50;96.50;101296.00;5025287;28;20050;-79
2023/02/23 11:33:56;;;;;;;34.10;31.15;;;;;;;15.59;94.70;101301.88;5025765;28;20054;-79
2023/02/23 11:36:28;;;;;;;23.60;21.50;;;;;;;16.05;94.83;101292.44;5022826;28;20176;-79
2023/02/23 11:39:14;;;;;;;24.00;21.75;;;;;;;14.77;97.96;101294.09;5025895;28;20085;-79
2023/02/23 11:41:41;;;;;;;27.52;24.77;;;;;;;15.04;99.44;101288.50;5020546;28;20064;-79
2023/02/23 11:44:19;;;;;;;37.13;34.20;;;;;;;15.17;98.42;101292.91;5022557;28;20092;-79
2023/02/23 11:46:46;;;;;;;34.88;32.00;;;;;;;15.24;96.27;101293.63;5023332;28;20097;-79
2023/02/23 11:49:20;;;;;;;28.15;25.85;;;;;;;14.84;97.82;101305.56;4677343;28;9999717;-79
2023/02/23 11:51:49;;;;;;;26.63;24.27;;;;;;;14.09;100.00;101286.78;5026733;28;20049;-79
2023/02/23 11:54:23;;;;;;;27.23;23.52;;;;;;;13.98;100.00;101295.47;5024878;28;20050;-79
2023/02/23 11:56:52;;;;;;;31.33;28.55;;;;;;;15.09;99.40;101299.34;5026909;28;20535;-79
2023/02/23 11:59:27;;;;;;;34.40;31.17;;;;;;;14.68;100.00;101299.97;5023861;28;20084;-79
2023/02/23 12:01:59;;;;;;;23.77;21.77;;;;;;;14.84;100.00;101305.56;5023387;28;20038;-79
2023/02/23 12:04:29;;;;;;;26.23;23.73;;;;;;;13.85;100.00;101306.22;5030678;28;20045;-80
2023/02/23 12:07:37;;;;;;;28.25;26.00;;;;;;;14.71;100.00;101305.69;5030548;28;20057;-79
2023/02/23 12:10:14;;;;;;;28.13;25.60;;;;;;;14.71;99.38;101299.53;5023750;28;20071;-79
2023/02/23 12:12:49;;;;;;;24.90;22.77;;;;;;;15.57;97.06;101303.97;5027570;28;20053;-79
2023/02/23 12:15:25;;;;;;;26.33;24.13;;;;;;;15.21;98.11;101302.09;5025052;28;20049;-79
2023/02/23 12:17:58;;;;;;;25.90;23.20;;;;;;;15.43;96.21;101306.00;5032886;28;20050;-79
2023/02/23 12:20:28;;;;;;;25.27;22.98;;;;;;;14.25;95.77;101298.81;5001162;28;20116;-79
2023/02/23 12:22:59;;;;;;;29.50;26.85;;;;;;;15.08;96.03;101301.22;5028023;28;20045;-79
2023/02/23 12:25:33;;;;;;;25.20;23.23;;;;;;;14.80;96.07;101292.84;5022944;28;20041;-79
2023/02/23 12:28:06;;;;;;;23.67;21.65;;;;;;;14.05;97.86;101285.56;5028646;28;20045;-79
2023/02/23 12:30:42;;;;;;;23.95;21.55;;;;;;;14.17;99.30;101307.06;5026534;28;20088;-79
2023/02/23 12:33:14;;;;;;;26.13;23.55;;;;;;;13.82;100.00;101296.78;5028512;28;20115;-79
2023/02/23 12:35:46;;;;;;;28.10;25.90;;;;;;;14.24;98.96;101305.16;5026713;28;20046;-79
2023/02/23 12:38:26;;;;;;;28.52;25.63;;;;;;;13.84;99.08;101301.91;5023975;28;20057;-79